Time;durP1;ratioP1;P1;durP2;ratioP2;P2;SDS_P1;SDS_P2;PMS_P1;PMS_P2;Temp;Humidity;BMP_temperature;BMP_pressure;BME280_temperature;BME280_humidity;BME280_pressure;Samples;Min_cycle;Max_cycle;Signal;HPM_P1;HPM_P2
2021/09/07 00:02:01;;;;;;;24.70;23.07;;;;;;;;;;5056882;28;20455;-85
2021/09/07 00:04:30;;;;;;;25.70;23.90;;;;;;;;;;5056095;28;20462;-86
2021/09/07 00:06:57;;;;;;;25.33;23.63;;;;;;;;;;5056224;28;20435;-85
2021/09/07 00:09:25;;;;;;;23.83;22.23;;;;;;;;;;5055998;28;20453;-86
2021/09/07 00:11:52;;;;;;;25.50;23.50;;;;;;;;;;5055882;28;20911;-86
2021/09/07 00:14:19;;;;;;;26.17;24.47;;;;;;;;;;5055742;28;20428;-86
2021/09/07 00:16:48;;;;;;;24.67;22.97;;;;;;;;;;5047793;28;20489;-86
2021/09/07 00:19:17;;;;;;;26.90;24.90;;;;;;;;;;5056113;28;20441;-86
2021/09/07 00:21:44;;;;;;;26.57;24.50;;;;;;;;;;5056073;28;20793;-86
2021/09/07 00:24:12;;;;;;;24.57;22.87;;;;;;;;;;5038282;28;20445;-86
2021/09/07 00:26:39;;;;;;;25.60;23.87;;;;;;;;;;5055441;28;20439;-86
2021/09/07 00:29:07;;;;;;;25.77;23.97;;;;;;;;;;5056106;28;20443;-86
2021/09/07 00:31:34;;;;;;;26.30;24.30;;;;;;;;;;5055630;28;20464;-85
2021/09/07 00:34:03;;;;;;;26.57;24.67;;;;;;;;;;5055422;28;20445;-86
2021/09/07 00:36:31;;;;;;;26.33;24.53;;;;;;;;;;5055294;28;20437;-86
2021/09/07 00:38:58;;;;;;;25.53;23.53;;;;;;;;;;5055631;28;20446;-86
2021/09/07 00:41:25;;;;;;;23.97;22.37;;;;;;;;;;5055805;28;20506;-85
2021/09/07 00:43:53;;;;;;;26.67;24.67;;;;;;;;;;5054635;28;20551;-86
2021/09/07 00:46:20;;;;;;;26.50;24.50;;;;;;;;;;5057826;28;20994;-85
2021/09/07 00:48:48;;;;;;;25.30;23.43;;;;;;;;;;5037806;28;20427;-86
2021/09/07 00:51:16;;;;;;;25.97;23.97;;;;;;;;;;5055917;28;20479;-85
2021/09/07 00:53:44;;;;;;;25.83;23.97;;;;;;;;;;5057957;28;20439;-85
2021/09/07 00:56:12;;;;;;;25.07;23.37;;;;;;;;;;5057259;28;20431;-85
2021/09/07 00:58:40;;;;;;;25.80;24.00;;;;;;;;;;5057972;28;20495;-85
2021/09/07 01:01:08;;;;;;;26.40;24.50;;;;;;;;;;5058670;28;20439;-86
2021/09/07 01:03:36;;;;;;;25.03;23.23;;;;;;;;;;5055266;28;20452;-86
2021/09/07 01:06:03;;;;;;;26.00;24.00;;;;;;;;;;5055013;28;20444;-85
2021/09/07 01:08:32;;;;;;;25.93;24.10;;;;;;;;;;5054976;28;20435;-86
2021/09/07 01:11:00;;;;;;;27.03;25.03;;;;;;;;;;5054839;28;20442;-85
2021/09/07 01:13:27;;;;;;;26.57;24.67;;;;;;;;;;5055066;28;20443;-86
2021/09/07 01:15:55;;;;;;;26.10;23.87;;;;;;;;;;5054884;28;20435;-85
2021/09/07 01:18:22;;;;;;;25.77;23.97;;;;;;;;;;5020667;28;20839;-86
2021/09/07 01:20:50;;;;;;;25.23;23.40;;;;;;;;;;5037187;28;20911;-86
2021/09/07 01:23:17;;;;;;;26.23;24.33;;;;;;;;;;5054908;28;20459;-86
2021/09/07 01:25:46;;;;;;;25.90;24.03;;;;;;;;;;5055183;28;20452;-86
2021/09/07 01:28:15;;;;;;;25.93;24.10;;;;;;;;;;5054889;28;20892;-86
2021/09/07 01:30:44;;;;;;;26.50;24.53;;;;;;;;;;5054960;28;20475;-86
2021/09/07 01:33:12;;;;;;;26.20;24.40;;;;;;;;;;5055049;28;20421;-86
2021/09/07 01:35:40;;;;;;;25.50;23.70;;;;;;;;;;5054100;28;20435;-86
2021/09/07 01:38:07;;;;;;;25.60;23.80;;;;;;;;;;5054390;28;20542;-86
2021/09/07 01:40:35;;;;;;;24.70;23.00;;;;;;;;;;5054440;28;20431;-86
2021/09/07 01:43:04;;;;;;;27.30;25.03;;;;;;;;;;5054233;28;20466;-86
2021/09/07 01:45:31;;;;;;;24.50;22.80;;;;;;;;;;5054149;28;20444;-86
2021/09/07 01:47:59;;;;;;;26.30;24.40;;;;;;;;;;5053927;28;20426;-86
2021/09/07 01:50:26;;;;;;;25.97;23.87;;;;;;;;;;5054245;28;20452;-86
2021/09/07 01:52:54;;;;;;;25.63;23.83;;;;;;;;;;5054150;28;20405;-86
2021/09/07 01:55:21;;;;;;;25.90;23.90;;;;;;;;;;5054068;28;20440;-86
2021/09/07 01:57:49;;;;;;;25.80;23.90;;;;;;;;;;5054433;28;20478;-86
2021/09/07 02:00:19;;;;;;;26.03;23.93;;;;;;;;;;5054003;28;20410;-84
2021/09/07 02:02:46;;;;;;;25.70;24.00;;;;;;;;;;5054563;28;20431;-86
2021/09/07 02:05:14;;;;;;;26.43;24.50;;;;;;;;;;5054004;28;20410;-86
2021/09/07 02:07:41;;;;;;;25.13;23.33;;;;;;;;;;5054061;28;20459;-85
2021/09/07 02:10:09;;;;;;;25.07;23.17;;;;;;;;;;5054300;28;20447;-86
2021/09/07 02:12:37;;;;;;;25.30;23.50;;;;;;;;;;5036896;28;20414;-86
2021/09/07 02:15:05;;;;;;;25.53;23.70;;;;;;;;;;5054171;28;20434;-86
2021/09/07 02:17:34;;;;;;;25.23;23.33;;;;;;;;;;5054153;28;20506;-86
2021/09/07 02:20:02;;;;;;;24.70;23.10;;;;;;;;;;5053666;28;20443;-86
2021/09/07 02:22:29;;;;;;;25.40;23.50;;;;;;;;;;5054068;28;20425;-85
2021/09/07 02:24:57;;;;;;;25.83;24.03;;;;;;;;;;5054500;28;20420;-86
2021/09/07 02:27:24;;;;;;;25.27;23.37;;;;;;;;;;5053673;28;20540;-86
2021/09/07 02:29:52;;;;;;;25.73;23.83;;;;;;;;;;5053836;28;20444;-86
2021/09/07 02:32:19;;;;;;;24.73;23.00;;;;;;;;;;5054243;28;20514;-85
2021/09/07 02:34:48;;;;;;;25.90;23.90;;;;;;;;;;5054775;28;20439;-86
2021/09/07 02:37:15;;;;;;;26.03;24.10;;;;;;;;;;5053554;28;20461;-86
2021/09/07 02:39:43;;;;;;;25.23;23.40;;;;;;;;;;5053669;28;20410;-86
2021/09/07 02:42:10;;;;;;;25.80;23.90;;;;;;;;;;5053970;28;20442;-86
2021/09/07 02:44:37;;;;;;;27.17;25.17;;;;;;;;;;5053255;28;20485;-86
2021/09/07 02:47:05;;;;;;;25.83;24.03;;;;;;;;;;5053354;28;20439;-86
2021/09/07 02:49:32;;;;;;;24.20;22.60;;;;;;;;;;5053523;28;20412;-86
2021/09/07 02:52:01;;;;;;;23.93;22.33;;;;;;;;;;5054033;28;20427;-86
2021/09/07 02:54:28;;;;;;;24.60;23.00;;;;;;;;;;5053787;28;20448;-86
2021/09/07 02:56:56;;;;;;;25.03;23.23;;;;;;;;;;5053650;28;20445;-86
2021/09/07 02:59:23;;;;;;;24.67;22.90;;;;;;;;;;5053657;28;20519;-86
2021/09/07 03:01:51;;;;;;;25.93;24.13;;;;;;;;;;5053920;28;20435;-86
2021/09/07 03:04:18;;;;;;;25.60;23.80;;;;;;;;;;5053814;28;20429;-86
2021/09/07 03:06:48;;;;;;;26.30;24.23;;;;;;;;;;5054291;28;20446;-86
2021/09/07 03:09:17;;;;;;;27.20;25.40;;;;;;;;;;5057755;28;20451;-86
2021/09/07 03:11:44;;;;;;;26.40;24.10;;;;;;;;;;5039593;28;20451;-86
2021/09/07 03:14:12;;;;;;;25.30;23.20;;;;;;;;;;5057240;28;20425;-86
2021/09/07 03:16:39;;;;;;;26.17;24.10;;;;;;;;;;5056941;28;20437;-85
2021/09/07 03:19:06;;;;;;;25.43;23.73;;;;;;;;;;5056997;28;20474;-86
2021/09/07 03:21:34;;;;;;;26.33;24.27;;;;;;;;;;5056913;28;20445;-85
2021/09/07 03:24:01;;;;;;;25.70;23.70;;;;;;;;;;5057129;28;20446;-85
2021/09/07 03:26:30;;;;;;;25.17;23.37;;;;;;;;;;5057170;28;20413;-86
2021/09/07 03:28:58;;;;;;;24.20;22.60;;;;;;;;;;5057425;28;20427;-86
2021/09/07 03:31:25;;;;;;;24.47;22.77;;;;;;;;;;5056800;28;20435;-85
2021/09/07 03:33:53;;;;;;;27.17;24.97;;;;;;;;;;5056600;28;20439;-86
2021/09/07 03:36:20;;;;;;;26.60;24.67;;;;;;;;;;5056778;28;20418;-86
2021/09/07 03:38:48;;;;;;;25.60;23.80;;;;;;;;;;5056776;28;20493;-86
2021/09/07 03:41:15;;;;;;;26.17;24.37;;;;;;;;;;5056774;28;20436;-86
2021/09/07 03:43:44;;;;;;;24.53;22.73;;;;;;;;;;5038849;28;20795;-85
2021/09/07 03:46:12;;;;;;;25.03;23.23;;;;;;;;;;5056824;28;20740;-86
2021/09/07 03:48:40;;;;;;;24.43;22.73;;;;;;;;;;5057139;28;20468;-86
2021/09/07 03:51:07;;;;;;;25.87;23.80;;;;;;;;;;5056916;28;20837;-85
2021/09/07 03:53:34;;;;;;;23.43;21.83;;;;;;;;;;5056897;28;20498;-86
2021/09/07 03:56:02;;;;;;;24.10;22.10;;;;;;;;;;5059292;28;20452;-86
2021/09/07 03:58:29;;;;;;;24.00;22.20;;;;;;;;;;5056480;28;20484;-85
2021/09/07 04:00:58;;;;;;;24.80;23.10;;;;;;;;;;5056085;28;20798;-86
2021/09/07 04:03:26;;;;;;;24.20;22.60;;;;;;;;;;5056637;28;20925;-85
2021/09/07 04:05:53;;;;;;;24.47;22.77;;;;;;;;;;5039000;28;20451;-86
2021/09/07 04:08:20;;;;;;;23.73;22.17;;;;;;;;;;5056253;28;20414;-86
2021/09/07 04:10:48;;;;;;;24.20;22.50;;;;;;;;;;5060290;28;20443;-84
2021/09/07 04:13:15;;;;;;;24.33;22.53;;;;;;;;;;5061187;28;20441;-86
2021/09/07 04:15:42;;;;;;;25.03;23.23;;;;;;;;;;5055906;28;20421;-86
2021/09/07 04:18:11;;;;;;;24.33;22.53;;;;;;;;;;5054903;28;20464;-86
2021/09/07 04:20:39;;;;;;;24.40;22.70;;;;;;;;;;5056144;28;20775;-86
2021/09/07 04:23:06;;;;;;;23.83;22.30;;;;;;;;;;5056292;28;20416;-86
2021/09/07 04:25:34;;;;;;;25.73;23.93;;;;;;;;;;5038664;28;20443;-86
2021/09/07 04:28:01;;;;;;;24.90;23.23;;;;;;;;;;5056249;28;20407;-85
2021/09/07 04:30:28;;;;;;;25.07;23.30;;;;;;;;;;5057229;28;20779;-86
2021/09/07 04:32:56;;;;;;;24.47;22.70;;;;;;;;;;5058773;28;20410;-86
2021/09/07 04:35:25;;;;;;;23.63;22.07;;;;;;;;;;5063319;28;20411;-86
2021/09/07 04:37:52;;;;;;;26.20;24.20;;;;;;;;;;5055387;28;20421;-86
2021/09/07 04:40:19;;;;;;;24.17;22.30;;;;;;;;;;5055607;28;20446;-86
2021/09/07 04:42:47;;;;;;;23.70;21.87;;;;;;;;;;5021609;28;20448;-86
2021/09/07 04:45:14;;;;;;;23.73;21.90;;;;;;;;;;5055645;28;20877;-86
2021/09/07 04:47:42;;;;;;;25.60;23.33;;;;;;;;;;5055865;28;20444;-85
2021/09/07 04:50:09;;;;;;;23.73;21.90;;;;;;;;;;5055549;28;21441;-85
2021/09/07 04:52:38;;;;;;;23.23;21.70;;;;;;;;;;5055175;28;20458;-86
2021/09/07 04:55:06;;;;;;;24.70;22.87;;;;;;;;;;5056554;28;20426;-86
2021/09/07 04:57:35;;;;;;;24.93;23.23;;;;;;;;;;5056308;28;20453;-86
2021/09/07 05:00:03;;;;;;;25.13;23.03;;;;;;;;;;5056512;28;20484;-86
2021/09/07 05:02:34;;;;;;;23.90;22.40;;;;;;;;;;5057363;28;20449;-86
2021/09/07 05:05:03;;;;;;;24.03;22.40;;;;;;;;;;5063548;28;20762;-86
2021/09/07 05:07:31;;;;;;;23.50;21.93;;;;;;;;;;5055596;28;20905;-86
2021/09/07 05:10:00;;;;;;;23.60;21.80;;;;;;;;;;5055313;28;20411;-86
2021/09/07 05:12:27;;;;;;;24.57;22.97;;;;;;;;;;5056402;28;20432;-86
2021/09/07 05:14:55;;;;;;;24.03;22.43;;;;;;;;;;5055165;28;20524;-86
2021/09/07 05:17:22;;;;;;;24.53;22.80;;;;;;;;;;5055451;28;20821;-86
2021/09/07 05:19:50;;;;;;;23.63;22.10;;;;;;;;;;5060412;28;20496;-85
2021/09/07 05:22:17;;;;;;;24.10;22.40;;;;;;;;;;5056176;28;20444;-86
2021/09/07 05:24:44;;;;;;;22.67;21.27;;;;;;;;;;5057663;28;20422;-80
2021/09/07 05:27:13;;;;;;;23.50;22.00;;;;;;;;;;5055033;28;20430;-80
2021/09/07 05:29:41;;;;;;;24.17;22.37;;;;;;;;;;5054378;28;20423;-80
2021/09/07 05:32:10;;;;;;;23.50;22.00;;;;;;;;;;5057700;28;20413;-87
2021/09/07 05:34:37;;;;;;;23.93;22.33;;;;;;;;;;5055953;28;20416;-87
2021/09/07 05:37:05;;;;;;;22.73;20.80;;;;;;;;;;5055912;28;20447;-79
2021/09/07 05:39:32;;;;;;;24.10;22.50;;;;;;;;;;5054275;28;20466;-80
2021/09/07 05:42:00;;;;;;;23.67;21.97;;;;;;;;;;5054097;28;20439;-80
2021/09/07 05:44:29;;;;;;;23.67;22.07;;;;;;;;;;5054429;28;20445;-87
2021/09/07 05:46:56;;;;;;;23.67;21.90;;;;;;;;;;5055289;28;20436;-85
2021/09/07 05:49:24;;;;;;;23.43;21.77;;;;;;;;;;5036696;28;20974;-86
2021/09/07 05:51:51;;;;;;;23.73;22.13;;;;;;;;;;5036982;28;20452;-86
2021/09/07 05:54:19;;;;;;;24.37;22.70;;;;;;;;;;5054202;28;20443;-84
2021/09/07 05:56:46;;;;;;;24.03;22.30;;;;;;;;;;5036222;28;20968;-87
2021/09/07 05:59:14;;;;;;;24.70;23.00;;;;;;;;;;5054363;28;20483;-80
2021/09/07 06:01:43;;;;;;;24.97;23.40;;;;;;;;;;5035798;28;21054;-82
2021/09/07 06:04:10;;;;;;;24.73;23.00;;;;;;;;;;5053759;28;20445;-84
2021/09/07 06:06:38;;;;;;;23.63;22.13;;;;;;;;;;5053911;28;20450;-87
2021/09/07 06:09:05;;;;;;;23.80;22.27;;;;;;;;;;5053010;28;20909;-84
2021/09/07 06:11:32;;;;;;;24.10;22.50;;;;;;;;;;5053471;28;20427;-81
2021/09/07 06:14:00;;;;;;;23.63;21.93;;;;;;;;;;5055061;28;20421;-82
2021/09/07 06:16:27;;;;;;;23.63;22.13;;;;;;;;;;5053749;28;20440;-80
2021/09/07 06:18:56;;;;;;;24.40;22.70;;;;;;;;;;5053420;28;20493;-85
2021/09/07 06:21:23;;;;;;;24.80;23.00;;;;;;;;;;5053019;28;20435;-84
2021/09/07 06:23:52;;;;;;;24.67;22.93;;;;;;;;;;5053553;28;20405;-84
2021/09/07 06:26:19;;;;;;;24.97;23.33;;;;;;;;;;5053729;28;20434;-83
2021/09/07 06:28:46;;;;;;;24.73;23.03;;;;;;;;;;5055584;28;20452;-85
2021/09/07 06:31:14;;;;;;;24.50;22.90;;;;;;;;;;5056000;28;20411;-85
2021/09/07 06:33:41;;;;;;;25.73;23.40;;;;;;;;;;5054768;28;20410;-85
2021/09/07 06:36:10;;;;;;;27.00;24.90;;;;;;;;;;5053702;28;20416;-84
2021/09/07 06:38:38;;;;;;;25.33;23.60;;;;;;;;;;5053552;28;20481;-84
2021/09/07 06:41:07;;;;;;;25.83;24.03;;;;;;;;;;5055126;28;20459;-85
2021/09/07 06:43:35;;;;;;;23.30;21.63;;;;;;;;;;5060493;28;20539;-84
2021/09/07 06:46:02;;;;;;;24.87;23.10;;;;;;;;;;5059560;28;20528;-80
2021/09/07 06:48:29;;;;;;;25.20;23.30;;;;;;;;;;5057423;28;20469;-80
2021/09/07 06:50:57;;;;;;;24.93;23.23;;;;;;;;;;5058092;28;20436;-81
2021/09/07 06:53:26;;;;;;;25.57;23.83;;;;;;;;;;5059386;28;20930;-83
2021/09/07 06:55:53;;;;;;;26.63;24.53;;;;;;;;;;5059624;28;20423;-84
2021/09/07 06:58:20;;;;;;;25.47;23.40;;;;;;;;;;5058848;28;20423;-85
2021/09/07 07:00:49;;;;;;;26.73;24.93;;;;;;;;;;5058673;28;20448;-85
2021/09/07 07:03:16;;;;;;;25.40;23.63;;;;;;;;;;5068033;28;20521;-84
2021/09/07 07:05:43;;;;;;;23.90;22.40;;;;;;;;;;5076037;28;20448;-84
2021/09/07 07:08:11;;;;;;;23.20;21.70;;;;;;;;;;5065564;28;20443;-84
2021/09/07 07:10:40;;;;;;;24.20;22.50;;;;;;;;;;5062969;28;20442;-85
2021/09/07 07:13:08;;;;;;;25.03;23.17;;;;;;;;;;5062287;28;20468;-84
2021/09/07 07:15:35;;;;;;;24.80;23.00;;;;;;;;;;5060867;28;20409;-83
2021/09/07 07:18:03;;;;;;;22.10;20.80;;;;;;;;;;5058057;28;20798;-84
2021/09/07 07:20:30;;;;;;;23.53;22.00;;;;;;;;;;5057638;28;20490;-84
2021/09/07 07:22:59;;;;;;;23.47;21.83;;;;;;;;;;5061725;28;20441;-86
2021/09/07 07:25:28;;;;;;;23.97;22.47;;;;;;;;;;5060052;28;20795;-83
2021/09/07 07:28:02;;;;;;;24.47;22.67;;;;;;;;;;5058121;28;20433;-80
2021/09/07 07:30:29;;;;;;;25.67;23.93;;;;;;;;;;5056982;28;20447;-80
2021/09/07 07:32:56;;;;;;;25.60;23.70;;;;;;;;;;5056250;28;20431;-79
2021/09/07 07:35:24;;;;;;;26.47;24.60;;;;;;;;;;5056461;28;20432;-79
2021/09/07 07:37:51;;;;;;;25.63;23.93;;;;;;;;;;5056070;28;20440;-79
2021/09/07 07:40:19;;;;;;;25.10;23.50;;;;;;;;;;5056264;28;20454;-84
2021/09/07 07:42:46;;;;;;;25.60;23.80;;;;;;;;;;5038620;28;20444;-85
2021/09/07 07:45:15;;;;;;;23.00;21.50;;;;;;;;;;5056772;28;20446;-85
2021/09/07 07:47:42;;;;;;;24.70;23.10;;;;;;;;;;5056765;28;20472;-86
2021/09/07 07:50:10;;;;;;;24.13;22.30;;;;;;;;;;5062058;28;20446;-88
2021/09/07 07:52:37;;;;;;;23.37;22.00;;;;;;;;;;5066459;28;20440;-88
2021/09/07 07:55:09;;;;;;;25.40;23.60;;;;;;;;;;5062614;28;20441;-87
2021/09/07 07:57:38;;;;;;;24.43;22.60;;;;;;;;;;5057944;28;20445;-80
2021/09/07 08:00:06;;;;;;;25.43;23.60;;;;;;;;;;5058953;28;20459;-83
2021/09/07 08:02:35;;;;;;;24.20;22.70;;;;;;;;;;5055370;28;20441;-80
2021/09/07 08:05:02;;;;;;;23.77;22.37;;;;;;;;;;5056846;28;20415;-80
2021/09/07 08:07:29;;;;;;;23.30;21.70;;;;;;;;;;5056815;28;20452;-80
2021/09/07 08:09:57;;;;;;;23.50;21.90;;;;;;;;;;5055707;28;20408;-80
2021/09/07 08:12:24;;;;;;;24.60;23.00;;;;;;;;;;5057322;28;20441;-80
2021/09/07 08:14:51;;;;;;;24.43;22.83;;;;;;;;;;5056626;28;20778;-80
2021/09/07 08:17:18;;;;;;;24.20;22.60;;;;;;;;;;5057235;28;20437;-80
2021/09/07 08:19:47;;;;;;;23.30;21.90;;;;;;;;;;5056603;28;20473;-80
2021/09/07 08:22:16;;;;;;;23.70;22.30;;;;;;;;;;5039421;28;20421;-81
2021/09/07 08:24:44;;;;;;;24.93;22.90;;;;;;;;;;5057299;28;20467;-80
2021/09/07 08:27:11;;;;;;;24.67;22.97;;;;;;;;;;5055518;28;20430;-80
2021/09/07 08:29:38;;;;;;;25.17;23.30;;;;;;;;;;5055407;28;20438;-81
2021/09/07 08:32:06;;;;;;;23.80;22.10;;;;;;;;;;5056136;28;20451;-81
2021/09/07 08:34:33;;;;;;;25.00;23.20;;;;;;;;;;5056434;28;20448;-81
2021/09/07 08:37:04;;;;;;;24.47;22.80;;;;;;;;;;5056967;28;20423;-79
2021/09/07 08:39:31;;;;;;;24.63;22.90;;;;;;;;;;5055725;28;20555;-81
2021/09/07 08:41:58;;;;;;;25.47;23.57;;;;;;;;;;5055183;28;20436;-81
2021/09/07 08:44:26;;;;;;;24.70;22.97;;;;;;;;;;5054783;28;20495;-81
2021/09/07 08:46:54;;;;;;;25.60;23.27;;;;;;;;;;5058805;28;20440;-81
2021/09/07 08:49:21;;;;;;;23.23;21.63;;;;;;;;;;5057102;28;20460;-80
2021/09/07 08:51:49;;;;;;;25.10;23.30;;;;;;;;;;5055548;28;20831;-80
2021/09/07 08:54:18;;;;;;;24.87;23.07;;;;;;;;;;5054365;28;20424;-81
2021/09/07 08:56:46;;;;;;;24.40;22.80;;;;;;;;;;5055790;28;20511;-81
2021/09/07 08:59:13;;;;;;;24.70;22.90;;;;;;;;;;5055954;28;20422;-80
2021/09/07 09:01:42;;;;;;;25.00;23.10;;;;;;;;;;5054923;28;20426;-81
2021/09/07 09:04:24;;;;;;;25.13;23.10;;;;;;;;;;5054413;28;20890;-83
2021/09/07 09:06:51;;;;;;;24.87;23.17;;;;;;;;;;5056871;28;20444;-86
2021/09/07 09:09:20;;;;;;;25.40;23.70;;;;;;;;;;5054950;28;20438;-81
2021/09/07 09:11:51;;;;;;;25.87;23.90;;;;;;;;;;5054112;28;20441;-83
2021/09/07 09:14:36;;;;;;;25.90;24.07;;;;;;;;;;5055696;28;20466;-85
2021/09/07 09:17:22;;;;;;;27.23;25.30;;;;;;;;;;5054813;28;20450;-78
2021/09/07 09:19:51;;;;;;;27.30;25.10;;;;;;;;;;5054358;28;20521;-77
2021/09/07 09:22:19;;;;;;;25.97;23.97;;;;;;;;;;5054917;28;20995;-78
2021/09/07 09:24:48;;;;;;;25.80;24.00;;;;;;;;;;5054439;28;20473;-79
2021/09/07 09:27:16;;;;;;;25.77;23.87;;;;;;;;;;5054910;28;20805;-79
2021/09/07 09:29:45;;;;;;;25.60;23.67;;;;;;;;;;5054372;28;20561;-79
2021/09/07 09:32:14;;;;;;;26.37;24.37;;;;;;;;;;5054034;28;20965;-77
2021/09/07 09:34:43;;;;;;;27.20;25.10;;;;;;;;;;5036511;28;20458;-84
2021/09/07 09:37:11;;;;;;;25.90;24.00;;;;;;;;;;5054181;28;20473;-80
2021/09/07 09:39:39;;;;;;;26.77;24.63;;;;;;;;;;5052883;28;20496;-82
2021/09/07 09:42:08;;;;;;;26.37;24.50;;;;;;;;;;5054356;28;20433;-81
2021/09/07 09:44:36;;;;;;;27.10;25.03;;;;;;;;;;5054781;28;20488;-82
2021/09/07 09:47:06;;;;;;;26.10;24.20;;;;;;;;;;5056959;28;20565;-82
2021/09/07 09:49:35;;;;;;;26.23;24.33;;;;;;;;;;5055496;28;20541;-81
2021/09/07 09:52:03;;;;;;;26.87;24.67;;;;;;;;;;5055344;28;21224;-82
2021/09/07 09:54:32;;;;;;;27.40;25.10;;;;;;;;;;5036722;28;20451;-79
2021/09/07 09:57:00;;;;;;;27.80;25.67;;;;;;;;;;5053871;28;20446;-79
2021/09/07 09:59:29;;;;;;;28.00;25.80;;;;;;;;;;5053521;28;20521;-80
2021/09/07 10:01:57;;;;;;;27.00;24.90;;;;;;;;;;5053412;28;20424;-80
2021/09/07 10:04:25;;;;;;;27.73;25.63;;;;;;;;;;5055488;28;20488;-79
2021/09/07 10:06:53;;;;;;;27.23;25.20;;;;;;;;;;5053684;28;20437;-79
2021/09/07 10:09:22;;;;;;;26.00;24.20;;;;;;;;;;5055099;28;20412;-79
2021/09/07 10:11:52;;;;;;;30.07;27.67;;;;;;;;;;5054838;28;20435;-78
2021/09/07 10:14:21;;;;;;;26.80;24.77;;;;;;;;;;5054038;28;20454;-79
2021/09/07 10:16:56;;;;;;;27.20;25.10;;;;;;;;;;5054669;28;20444;-80
2021/09/07 10:19:43;;;;;;;27.45;25.35;;;;;;;;;;5057852;28;20419;-79
2021/09/07 10:24:59;;;;;;;28.10;26.00;;;;;;;;;;5058204;28;20481;-78
2021/09/07 10:27:44;;;;;;;28.37;26.27;;;;;;;;;;5057918;28;20491;-79
2021/09/07 10:30:12;;;;;;;28.43;26.23;;;;;;;;;;5058181;28;20415;-83
2021/09/07 10:32:41;;;;;;;29.97;27.50;;;;;;;;;;5058813;28;20442;-85
2021/09/07 10:35:10;;;;;;;29.67;27.27;;;;;;;;;;5060033;28;20449;-88
2021/09/07 10:37:56;;;;;;;29.20;26.80;;;;;;;;;;5042911;28;20844;-89
2021/09/07 10:40:41;;;;;;;27.17;25.07;;;;;;;;;;5056656;28;20493;-89
2021/09/07 10:43:09;;;;;;;28.20;26.07;;;;;;;;;;5063672;28;20480;-90
2021/09/07 10:45:37;;;;;;;28.07;25.77;;;;;;;;;;5059751;28;20924;-88
2021/09/07 10:48:20;;;;;;;27.80;25.77;;;;;;;;;;5061252;28;20469;-85
2021/09/07 10:51:03;;;;;;;26.53;24.60;;;;;;;;;;5060985;28;20423;-85
2021/09/07 10:53:30;;;;;;;29.03;26.83;;;;;;;;;;5067387;28;20446;-84
2021/09/07 10:56:12;;;;;;;28.87;26.67;;;;;;;;;;5062763;28;20907;-83
2021/09/07 10:58:41;;;;;;;28.07;25.97;;;;;;;;;;5062710;28;20442;-83
2021/09/07 11:01:27;;;;;;;27.20;25.20;;;;;;;;;;5062035;28;20449;-84
2021/09/07 11:04:09;;;;;;;27.90;25.60;;;;;;;;;;5062355;28;20453;-80
2021/09/07 11:06:42;;;;;;;28.67;26.27;;;;;;;;;;5054191;28;20496;-80
2021/09/07 11:09:24;;;;;;;28.50;26.50;;;;;;;;;;5063088;28;20450;-81
2021/09/07 11:11:51;;;;;;;28.90;26.80;;;;;;;;;;5061119;28;20435;-80
2021/09/07 11:14:19;;;;;;;30.23;27.83;;;;;;;;;;5061642;28;20428;-80
2021/09/07 11:16:53;;;;;;;31.97;29.03;;;;;;;;;;5060610;28;20413;-81
2021/09/07 11:19:20;;;;;;;27.33;25.00;;;;;;;;;;5061066;28;20417;-80
2021/09/07 11:21:49;;;;;;;28.63;26.43;;;;;;;;;;5057264;28;20482;-80
2021/09/07 11:24:20;;;;;;;28.90;26.70;;;;;;;;;;5056391;28;20417;-81
2021/09/07 11:26:47;;;;;;;30.87;28.57;;;;;;;;;;5056599;28;20875;-81
2021/09/07 11:29:14;;;;;;;31.43;29.13;;;;;;;;;;5055970;28;20449;-80
2021/09/07 11:31:42;;;;;;;30.53;28.30;;;;;;;;;;5056736;28;20441;-80
2021/09/07 11:34:14;;;;;;;32.80;30.07;;;;;;;;;;5056167;28;20428;-81
2021/09/07 11:36:42;;;;;;;31.70;29.07;;;;;;;;;;5055929;28;20527;-80
2021/09/07 11:39:20;;;;;;;32.07;29.53;;;;;;;;;;5056984;28;20413;-81
2021/09/07 11:41:48;;;;;;;30.77;28.27;;;;;;;;;;5056190;28;20488;-81
2021/09/07 11:44:15;;;;;;;28.23;26.03;;;;;;;;;;5055875;28;20464;-81
2021/09/07 11:46:43;;;;;;;28.93;26.83;;;;;;;;;;5055709;28;20897;-81
2021/09/07 11:49:11;;;;;;;28.60;26.40;;;;;;;;;;5055912;28;20408;-80
2021/09/07 11:51:40;;;;;;;28.03;26.03;;;;;;;;;;5056120;28;20441;-81
2021/09/07 11:54:08;;;;;;;28.57;26.47;;;;;;;;;;5055736;28;20424;-81
2021/09/07 11:56:37;;;;;;;28.63;26.63;;;;;;;;;;5055737;28;20449;-81
2021/09/07 11:59:11;;;;;;;28.40;26.30;;;;;;;;;;5055597;28;20464;-81
2021/09/07 12:01:39;;;;;;;30.37;28.20;;;;;;;;;;5055927;28;20461;-85
2021/09/07 12:04:07;;;;;;;30.93;28.53;;;;;;;;;;5055976;28;20441;-81
2021/09/07 12:06:36;;;;;;;30.97;28.37;;;;;;;;;;5055654;28;20924;-80
2021/09/07 12:09:10;;;;;;;29.10;26.80;;;;;;;;;;5055743;28;20417;-80
2021/09/07 12:11:40;;;;;;;31.03;28.53;;;;;;;;;;5055651;28;20442;-80
2021/09/07 12:14:08;;;;;;;30.80;28.50;;;;;;;;;;5055537;28;20458;-80
2021/09/07 12:16:37;;;;;;;30.33;28.10;;;;;;;;;;5055726;28;20505;-81
2021/09/07 12:19:21;;;;;;;30.57;28.07;;;;;;;;;;5055527;28;20789;-81
2021/09/07 12:21:48;;;;;;;29.23;27.03;;;;;;;;;;5055725;28;20948;-80
2021/09/07 12:24:16;;;;;;;30.67;28.27;;;;;;;;;;5055352;28;20917;-81
2021/09/07 12:26:44;;;;;;;28.80;26.70;;;;;;;;;;5055164;28;20443;-81
2021/09/07 12:29:12;;;;;;;30.10;27.67;;;;;;;;;;5055067;28;20462;-80
2021/09/07 12:31:40;;;;;;;31.10;28.87;;;;;;;;;;5054693;28;20544;-86
2021/09/07 12:34:07;;;;;;;29.13;27.03;;;;;;;;;;5055089;28;20439;-81
2021/09/07 12:36:44;;;;;;;28.60;26.40;;;;;;;;;;5054925;28;20920;-81
2021/09/07 12:39:11;;;;;;;28.70;26.57;;;;;;;;;;5055332;28;20923;-82
2021/09/07 12:41:38;;;;;;;30.60;28.30;;;;;;;;;;5055072;28;20486;-81
2021/09/07 12:44:07;;;;;;;29.87;27.53;;;;;;;;;;5056344;28;20572;-81
2021/09/07 12:46:35;;;;;;;29.50;27.17;;;;;;;;;;5039842;28;20466;-81
2021/09/07 12:49:02;;;;;;;28.50;26.50;;;;;;;;;;5057346;28;20484;-80
2021/09/07 12:51:30;;;;;;;28.60;26.43;;;;;;;;;;5056462;28;20434;-86
2021/09/07 12:54:00;;;;;;;27.57;25.67;;;;;;;;;;5039061;28;20447;-86
2021/09/07 12:56:32;;;;;;;28.10;26.20;;;;;;;;;;5055115;28;20439;-80
2021/09/07 12:59:02;;;;;;;28.17;26.17;;;;;;;;;;5037408;28;20413;-84
2021/09/07 13:01:32;;;;;;;28.10;26.20;;;;;;;;;;5054804;28;20486;-79
2021/09/07 13:04:00;;;;;;;29.40;27.30;;;;;;;;;;5055250;28;20927;-78
2021/09/07 13:06:29;;;;;;;29.03;26.30;;;;;;;;;;5054659;28;20496;-79
2021/09/07 13:08:57;;;;;;;29.63;27.47;;;;;;;;;;5055220;28;20468;-80
2021/09/07 13:11:25;;;;;;;27.20;25.30;;;;;;;;;;5055393;28;20439;-80
2021/09/07 13:13:53;;;;;;;29.83;27.30;;;;;;;;;;5054832;28;20438;-80
2021/09/07 13:16:21;;;;;;;27.50;25.70;;;;;;;;;;5054734;28;20443;-80
2021/09/07 13:18:51;;;;;;;27.87;25.87;;;;;;;;;;5055336;28;20461;-80
2021/09/07 13:21:19;;;;;;;28.03;25.83;;;;;;;;;;5063642;28;20487;-81
2021/09/07 13:23:47;;;;;;;27.60;25.70;;;;;;;;;;5041213;28;20486;-81
2021/09/07 13:26:14;;;;;;;27.73;25.83;;;;;;;;;;5054551;28;20470;-80
2021/09/07 13:28:42;;;;;;;29.20;27.20;;;;;;;;;;5055508;28;20416;-80
2021/09/07 13:31:09;;;;;;;28.10;25.70;;;;;;;;;;5054502;28;20409;-80
2021/09/07 13:33:37;;;;;;;27.47;25.57;;;;;;;;;;5054222;28;20409;-80
2021/09/07 13:36:06;;;;;;;27.27;25.37;;;;;;;;;;5054108;28;20553;-80
2021/09/07 13:38:33;;;;;;;27.30;25.47;;;;;;;;;;5054367;28;20417;-80
2021/09/07 13:41:01;;;;;;;27.53;25.63;;;;;;;;;;5054204;28;20477;-81
2021/09/07 13:43:28;;;;;;;27.30;25.17;;;;;;;;;;5055147;28;20482;-81
2021/09/07 13:45:56;;;;;;;27.50;25.43;;;;;;;;;;5054210;28;20439;-81
2021/09/07 13:48:23;;;;;;;27.10;25.20;;;;;;;;;;5054362;28;20928;-81
2021/09/07 13:50:51;;;;;;;27.47;25.40;;;;;;;;;;5054130;28;20442;-80
2021/09/07 13:53:21;;;;;;;26.27;24.40;;;;;;;;;;5036452;28;20824;-81
2021/09/07 13:55:48;;;;;;;27.47;25.23;;;;;;;;;;5054186;28;20435;-80
2021/09/07 13:58:15;;;;;;;27.50;25.37;;;;;;;;;;5054203;28;20435;-82
2021/09/07 14:00:43;;;;;;;26.67;24.87;;;;;;;;;;5038015;28;20802;-81
2021/09/07 14:03:10;;;;;;;27.03;25.27;;;;;;;;;;5055425;28;20943;-80
2021/09/07 14:05:38;;;;;;;25.93;24.20;;;;;;;;;;5055256;28;20443;-80
2021/09/07 14:08:06;;;;;;;26.23;24.43;;;;;;;;;;5055022;28;20447;-81
2021/09/07 14:10:35;;;;;;;26.07;24.07;;;;;;;;;;5055079;28;20438;-80
2021/09/07 14:13:04;;;;;;;27.07;25.07;;;;;;;;;;5055491;28;20442;-80
2021/09/07 14:15:32;;;;;;;26.87;24.67;;;;;;;;;;5055154;28;20513;-80
2021/09/07 14:17:59;;;;;;;27.63;25.60;;;;;;;;;;5054859;28;20473;-81
2021/09/07 14:20:26;;;;;;;26.77;24.70;;;;;;;;;;5057870;28;20914;-80
2021/09/07 14:22:53;;;;;;;28.30;25.90;;;;;;;;;;5057006;28;20486;-81
2021/09/07 14:25:21;;;;;;;26.97;25.17;;;;;;;;;;5056683;28;20470;-80
2021/09/07 14:27:51;;;;;;;26.93;25.03;;;;;;;;;;5058076;28;20437;-80